createdAt,value
2019-05-22T00:00:13.459Z,0
2019-05-22T00:01:12.569Z,0
2019-05-22T00:02:12.517Z,0
2019-05-22T00:03:12.567Z,0
2019-05-22T00:04:12.517Z,0
2019-05-22T00:05:12.556Z,0
2019-05-22T00:06:12.540Z,0
2019-05-22T00:07:12.531Z,0
2019-05-22T00:08:12.552Z,0
2019-05-22T00:09:12.541Z,0
2019-05-22T00:10:12.711Z,0
2019-05-22T00:11:12.534Z,0
2019-05-22T00:12:12.542Z,0
2019-05-22T00:13:12.590Z,0
2019-05-22T00:14:12.533Z,0
2019-05-22T00:15:12.702Z,0
2019-05-22T00:16:12.653Z,0
2019-05-22T00:17:12.534Z,0
2019-05-22T00:18:12.666Z,0
2019-05-22T00:19:12.550Z,0
2019-05-22T00:20:13.069Z,0
2019-05-22T00:21:12.585Z,0
2019-05-22T00:22:12.577Z,0
2019-05-22T00:23:13.333Z,0
2019-05-22T00:24:12.546Z,0
2019-05-22T00:25:12.611Z,0
2019-05-22T00:26:12.602Z,0
2019-05-22T00:27:12.875Z,0
2019-05-22T00:28:12.683Z,0
2019-05-22T00:29:12.726Z,0
2019-05-22T00:30:13.605Z,0
2019-05-22T00:31:12.672Z,0
2019-05-22T00:32:12.615Z,0
2019-05-22T00:33:12.588Z,0
2019-05-22T00:34:12.572Z,0
2019-05-22T00:35:12.633Z,0
2019-05-22T00:36:12.644Z,0
2019-05-22T00:37:12.698Z,0
2019-05-22T00:38:13.287Z,0
2019-05-22T00:39:12.682Z,0
2019-05-22T00:40:13.797Z,0
2019-05-22T00:41:12.685Z,0
2019-05-22T00:42:12.602Z,0
2019-05-22T00:43:21.156Z,0
2019-05-22T00:44:12.621Z,0
2019-05-22T00:45:12.669Z,0
2019-05-22T00:46:12.717Z,0
2019-05-22T00:47:12.621Z,0
2019-05-22T00:48:12.797Z,0
2019-05-22T00:49:12.657Z,0
2019-05-22T00:50:13.198Z,0
2019-05-22T00:51:12.666Z,0
2019-05-22T00:52:12.656Z,0
2019-05-22T00:53:12.647Z,0
2019-05-22T00:54:12.693Z,0
2019-05-22T00:55:12.722Z,0
2019-05-22T00:56:13.019Z,0
2019-05-22T00:57:12.681Z,0
2019-05-22T00:58:12.680Z,0
2019-05-22T00:59:12.686Z,0
2019-05-22T01:00:12.811Z,0
2019-05-22T01:01:12.705Z,0
2019-05-22T01:02:12.776Z,0
2019-05-22T01:03:12.698Z,0
2019-05-22T01:04:12.711Z,0
2019-05-22T01:05:12.741Z,0
2019-05-22T01:06:12.647Z,0
2019-05-22T01:07:12.713Z,0
2019-05-22T01:08:12.738Z,0
2019-05-22T01:09:12.684Z,0
2019-05-22T01:10:13.369Z,0
2019-05-22T01:11:12.657Z,0
2019-05-22T01:12:13.405Z,0
2019-05-22T01:13:12.665Z,0
2019-05-22T01:14:12.712Z,0
2019-05-22T01:15:12.930Z,0
2019-05-22T01:16:12.710Z,0
2019-05-22T01:17:12.737Z,0
2019-05-22T01:18:12.703Z,0
2019-05-22T01:19:12.772Z,0
2019-05-22T01:20:13.727Z,0
2019-05-22T01:21:12.704Z,0
2019-05-22T01:22:12.754Z,0
2019-05-22T01:23:12.775Z,0
2019-05-22T01:24:12.770Z,0
2019-05-22T01:25:12.747Z,0
2019-05-22T01:26:13.095Z,0
2019-05-22T01:27:12.765Z,0
2019-05-22T01:28:12.743Z,0
2019-05-22T01:29:12.674Z,0
2019-05-22T01:30:13.720Z,0
2019-05-22T01:31:12.683Z,0
2019-05-22T01:32:13.019Z,0
2019-05-22T01:33:12.712Z,0
2019-05-22T01:34:12.748Z,0
2019-05-22T01:35:12.757Z,0
2019-05-22T01:36:12.734Z,0
2019-05-22T01:37:12.761Z,0
2019-05-22T01:38:13.027Z,0
2019-05-22T01:39:12.776Z,0
2019-05-22T01:40:12.903Z,0
2019-05-22T01:41:12.733Z,0
2019-05-22T01:42:12.735Z,0
2019-05-22T01:43:12.741Z,0
2019-05-22T01:44:12.781Z,0
2019-05-22T01:45:14.678Z,0
2019-05-22T01:46:17.195Z,0
2019-05-22T01:47:12.983Z,0
2019-05-22T01:48:12.841Z,0
2019-05-22T01:49:12.797Z,0
2019-05-22T01:50:13.126Z,0
2019-05-22T01:51:13.007Z,0
2019-05-22T01:52:12.749Z,0
2019-05-22T01:53:12.731Z,0
2019-05-22T01:54:12.737Z,0
2019-05-22T01:55:12.884Z,0
2019-05-22T01:56:14.022Z,0
2019-05-22T01:57:12.737Z,0
2019-05-22T01:58:12.769Z,0
2019-05-22T01:59:13.368Z,0
2019-05-22T02:00:12.870Z,0
2019-05-22T02:01:13.897Z,0
2019-05-22T02:02:12.840Z,0
2019-05-22T02:03:12.779Z,0
2019-05-22T02:04:14.856Z,0
2019-05-22T02:05:13.155Z,0
2019-05-22T02:06:12.775Z,0
2019-05-22T02:07:12.835Z,0
2019-05-22T02:08:12.895Z,0
2019-05-22T02:09:14.297Z,0
2019-05-22T02:10:13.737Z,0
2019-05-22T02:11:13.060Z,0
2019-05-22T02:12:12.834Z,0
2019-05-22T02:13:12.800Z,0
2019-05-22T02:14:14.183Z,0
2019-05-22T02:15:12.889Z,0
2019-05-22T02:16:14.376Z,0
2019-05-22T02:17:12.825Z,0
2019-05-22T02:18:12.789Z,0
2019-05-22T02:19:12.815Z,0
2019-05-22T02:20:14.440Z,0
2019-05-22T02:21:12.806Z,0
2019-05-22T02:22:12.897Z,0
2019-05-22T02:23:12.803Z,0
2019-05-22T02:24:12.841Z,0
2019-05-22T02:25:12.834Z,0
2019-05-22T02:26:12.907Z,0
2019-05-22T02:27:12.867Z,0
2019-05-22T02:28:12.800Z,0
2019-05-22T02:29:12.801Z,0
2019-05-22T02:30:12.970Z,0
2019-05-22T02:31:12.840Z,0
2019-05-22T02:32:12.799Z,0
2019-05-22T02:33:12.909Z,0
2019-05-22T02:34:12.851Z,0
2019-05-22T02:35:12.988Z,0
2019-05-22T02:36:12.926Z,0
2019-05-22T02:37:13.016Z,0
2019-05-22T02:38:13.302Z,0
2019-05-22T02:39:12.847Z,0
2019-05-22T02:40:12.962Z,0
2019-05-22T02:41:16.967Z,0
2019-05-22T02:42:12.848Z,0
2019-05-22T02:43:12.886Z,0
2019-05-22T02:44:12.841Z,0
2019-05-22T02:45:12.885Z,0
2019-05-22T02:46:21.529Z,0
2019-05-22T02:47:27.096Z,0
2019-05-22T02:48:12.835Z,0
2019-05-22T02:49:12.864Z,0
2019-05-22T02:50:13.265Z,0
2019-05-22T02:51:12.897Z,0
2019-05-22T02:52:12.910Z,0
2019-05-22T02:53:12.876Z,0
2019-05-22T02:54:12.856Z,0
2019-05-22T02:55:12.931Z,0
2019-05-22T02:56:12.885Z,0
2019-05-22T02:57:12.884Z,0
2019-05-22T02:58:12.818Z,0
2019-05-22T02:59:12.890Z,0
2019-05-22T03:00:13.016Z,0
2019-05-22T03:01:12.924Z,0
2019-05-22T03:02:13.336Z,0
2019-05-22T03:03:12.858Z,0
2019-05-22T03:04:12.859Z,0
2019-05-22T03:05:15.711Z,0
2019-05-22T03:06:12.976Z,0
2019-05-22T03:07:12.865Z,0
2019-05-22T03:08:12.906Z,0
2019-05-22T03:09:12.922Z,0
2019-05-22T03:10:13.658Z,0
2019-05-22T03:11:12.908Z,0
2019-05-22T03:12:12.937Z,0
2019-05-22T03:13:12.917Z,0
2019-05-22T03:14:12.908Z,0
2019-05-22T03:15:12.943Z,0
2019-05-22T03:16:20.853Z,0
2019-05-22T03:17:12.906Z,0
2019-05-22T03:18:12.875Z,0
2019-05-22T03:19:16.984Z,0
2019-05-22T03:20:14.094Z,0
2019-05-22T03:21:12.901Z,0
2019-05-22T03:22:13.002Z,0
2019-05-22T03:23:12.897Z,0
2019-05-22T03:24:12.892Z,0
2019-05-22T03:25:12.979Z,0
2019-05-22T03:26:13.682Z,0
2019-05-22T03:27:12.911Z,0
2019-05-22T03:28:13.089Z,0
2019-05-22T03:29:12.945Z,4
2019-05-22T03:30:13.918Z,4
2019-05-22T03:31:13.168Z,4
2019-05-22T03:32:12.990Z,0
2019-05-22T03:33:13.145Z,0
2019-05-22T03:34:13.021Z,0
2019-05-22T03:35:12.990Z,0
2019-05-22T03:36:13.232Z,4
2019-05-22T03:37:12.938Z,4
2019-05-22T03:38:12.962Z,0
2019-05-22T03:39:12.907Z,0
2019-05-22T03:40:13.027Z,0
2019-05-22T03:41:13.048Z,4
2019-05-22T03:42:13.308Z,4
2019-05-22T03:43:13.006Z,4
2019-05-22T03:44:13.266Z,4
2019-05-22T03:45:12.987Z,4
2019-05-22T03:46:22.359Z,0
2019-05-22T03:47:13.311Z,4
2019-05-22T03:48:12.952Z,4
2019-05-22T03:49:31.595Z,4
2019-05-22T03:50:13.457Z,4
2019-05-22T03:51:12.983Z,4
2019-05-22T03:52:12.916Z,4
2019-05-22T03:53:12.988Z,4
2019-05-22T03:54:13.013Z,4
2019-05-22T03:55:13.064Z,4
2019-05-22T03:56:13.435Z,4
2019-05-22T03:57:12.972Z,4
2019-05-22T03:58:13.059Z,4
2019-05-22T03:59:13.973Z,4
2019-05-22T04:00:13.053Z,4
2019-05-22T04:01:12.955Z,4
2019-05-22T04:02:12.965Z,8
2019-05-22T04:03:13.009Z,4
2019-05-22T04:04:12.976Z,8
2019-05-22T04:05:13.024Z,4
2019-05-22T04:06:12.990Z,8
2019-05-22T04:07:12.999Z,8
2019-05-22T04:08:13.005Z,8
2019-05-22T04:09:12.991Z,8
2019-05-22T04:10:13.024Z,8
2019-05-22T04:16:19.502Z,16
2019-05-22T04:16:30.725Z,20
2019-05-22T04:17:30.574Z,20
2019-05-22T04:18:31.072Z,24
2019-05-22T04:19:51.730Z,24
2019-05-22T04:20:30.606Z,24
2019-05-22T04:21:30.977Z,24
2019-05-22T04:22:30.622Z,28
2019-05-22T04:23:30.658Z,28
2019-05-22T04:26:38.000Z,36
2019-05-22T04:27:49.065Z,36
2019-05-22T04:28:49.041Z,36
2019-05-22T04:29:49.000Z,40
2019-05-22T04:30:49.004Z,44
2019-05-22T04:31:49.851Z,48
2019-05-22T04:32:48.998Z,44
2019-05-22T04:33:49.073Z,48
2019-05-22T04:34:49.013Z,40
2019-05-22T04:35:49.077Z,40
2019-05-22T04:36:49.065Z,44
2019-05-22T04:37:49.432Z,40
2019-05-22T04:38:49.036Z,44
2019-05-22T04:39:49.106Z,44
2019-05-22T04:40:49.031Z,48
2019-05-22T04:41:49.051Z,48
2019-05-22T04:42:49.063Z,48
2019-05-22T04:43:49.377Z,48
2019-05-22T04:44:48.993Z,48
2019-05-22T04:45:49.022Z,48
2019-05-22T04:46:49.127Z,52
2019-05-22T04:47:49.050Z,48
2019-05-22T04:48:53.661Z,40
2019-05-22T04:50:06.178Z,40
2019-05-22T04:50:49.132Z,36
2019-05-22T04:51:49.012Z,32
2019-05-22T04:52:49.085Z,28
2019-05-22T04:53:49.090Z,28
2019-05-22T04:54:52.219Z,32
2019-05-22T04:55:49.058Z,28
2019-05-22T04:56:49.068Z,32
2019-05-22T04:57:49.079Z,32
2019-05-22T04:58:49.059Z,32
2019-05-22T04:59:49.068Z,32
2019-05-22T05:00:49.116Z,32
2019-05-22T05:01:49.489Z,36
2019-05-22T05:02:49.107Z,40
2019-05-22T05:03:49.076Z,48
2019-05-22T05:04:49.085Z,56
2019-05-22T05:05:49.174Z,64
2019-05-22T05:06:49.117Z,68
2019-05-22T05:07:49.038Z,60
2019-05-22T05:08:49.130Z,60
2019-05-22T05:09:49.154Z,60
2019-05-22T05:10:49.074Z,64
2019-05-22T05:11:49.133Z,68
2019-05-22T05:12:49.154Z,60
2019-05-22T05:13:49.521Z,64
2019-05-22T05:14:49.107Z,60
2019-05-22T05:15:49.155Z,56
2019-05-22T05:16:49.109Z,64
2019-05-22T05:17:49.058Z,64
2019-05-22T05:18:49.067Z,60
2019-05-22T05:19:49.067Z,64
2019-05-22T05:20:49.142Z,68
2019-05-22T05:21:49.122Z,68
2019-05-22T05:22:49.088Z,72
2019-05-22T05:23:49.120Z,72
2019-05-22T05:24:49.041Z,68
2019-05-22T05:25:49.476Z,64
2019-05-22T05:26:49.278Z,64
2019-05-22T05:32:06.188Z,96
2019-05-22T05:32:17.269Z,92
2019-05-22T05:33:17.154Z,92
2019-05-22T05:34:17.303Z,96
2019-05-22T05:35:17.251Z,104
2019-05-22T05:36:17.230Z,96
2019-05-22T05:37:17.630Z,88
2019-05-22T05:38:17.208Z,88
2019-05-22T05:39:17.271Z,84
2019-05-22T05:40:17.366Z,88
2019-05-22T05:41:17.246Z,96
2019-05-22T05:42:17.248Z,88
2019-05-22T05:43:17.223Z,84
2019-05-22T05:44:17.165Z,84
2019-05-22T05:45:21.180Z,72
2019-05-22T05:46:17.213Z,84
2019-05-22T05:47:17.241Z,92
2019-05-22T05:48:17.237Z,100
2019-05-22T05:49:17.216Z,100
2019-05-22T05:50:17.223Z,100
2019-05-22T05:51:17.333Z,104
2019-05-22T05:52:17.236Z,104
2019-05-22T05:53:17.254Z,104
2019-05-22T05:54:17.208Z,108
2019-05-22T05:55:17.557Z,108
2019-05-22T05:56:17.249Z,100
2019-05-22T05:57:17.273Z,100
2019-05-22T05:58:17.215Z,100
2019-05-22T05:59:17.328Z,92
2019-05-22T06:00:17.257Z,96
2019-05-22T06:01:18.273Z,100
2019-05-22T06:02:17.237Z,108
2019-05-22T06:03:17.273Z,116
2019-05-22T06:04:17.251Z,120
2019-05-22T06:05:17.277Z,108
2019-05-22T06:06:17.245Z,132
2019-05-22T06:07:17.331Z,144
2019-05-22T06:08:17.444Z,136
2019-05-22T06:09:17.246Z,120
2019-05-22T06:11:21.994Z,116
2019-05-22T06:12:33.315Z,120
2019-05-22T06:13:33.024Z,120
2019-05-22T06:14:33.074Z,112
2019-05-22T06:16:07.847Z,120
2019-05-22T06:16:41.628Z,132
2019-05-22T06:17:33.046Z,144
2019-05-22T06:18:33.011Z,160
2019-05-22T06:19:33.120Z,192
2019-05-22T06:20:33.003Z,188
2019-05-22T06:21:33.030Z,164
2019-05-22T06:22:33.078Z,148
2019-05-22T06:23:33.025Z,116
2019-05-22T06:24:33.062Z,108
2019-05-22T06:25:33.035Z,104
2019-05-22T06:26:33.043Z,104
2019-05-22T06:27:33.031Z,100
2019-05-22T06:28:33.078Z,88
2019-05-22T06:29:35.737Z,84
2019-05-22T06:30:33.374Z,88
2019-05-22T06:31:33.085Z,100
2019-05-22T06:32:33.069Z,104
2019-05-22T06:33:33.012Z,108
2019-05-22T06:34:33.077Z,108
2019-05-22T06:35:33.086Z,108
2019-05-22T06:36:33.389Z,116
2019-05-22T06:37:33.036Z,136
2019-05-22T06:38:34.013Z,144
2019-05-22T06:39:33.049Z,136
2019-05-22T06:40:33.158Z,128
2019-05-22T06:41:33.044Z,124
2019-05-22T06:42:33.175Z,120
2019-05-22T06:43:33.061Z,124
2019-05-22T06:44:33.139Z,116
2019-05-22T06:45:35.579Z,108
2019-05-22T06:46:42.034Z,108
2019-05-22T06:47:33.035Z,96
2019-05-22T06:48:34.098Z,92
2019-05-22T06:49:33.090Z,100
2019-05-22T06:50:33.130Z,104
2019-05-22T06:51:33.059Z,104
2019-05-22T06:52:33.085Z,112
2019-05-22T06:53:33.052Z,120
2019-05-22T06:54:33.653Z,128
2019-05-22T06:55:33.104Z,144
2019-05-22T06:56:33.036Z,160
2019-05-22T06:57:33.063Z,160
2019-05-22T06:58:33.089Z,164
2019-05-22T06:59:33.092Z,148
2019-05-22T07:00:33.122Z,140
2019-05-22T07:01:33.188Z,148
2019-05-22T07:02:33.111Z,164
2019-05-22T07:03:33.233Z,184
2019-05-22T07:04:33.125Z,216
2019-05-22T07:05:33.419Z,240
2019-05-22T07:06:33.160Z,260
2019-05-22T07:07:33.144Z,288
2019-05-22T07:08:33.114Z,320
2019-05-22T07:09:33.080Z,316
2019-05-22T07:10:33.147Z,280
2019-05-22T07:11:33.194Z,280
2019-05-22T07:12:33.118Z,324
2019-05-22T07:13:33.108Z,348
2019-05-22T07:14:33.132Z,356
2019-05-22T07:15:33.627Z,380
2019-05-22T07:16:42.993Z,396
2019-05-22T07:17:33.401Z,372
2019-05-22T07:18:33.154Z,360
2019-05-22T07:19:33.105Z,348
2019-05-22T07:20:33.143Z,328
2019-05-22T07:21:41.713Z,332
2019-05-22T07:22:33.117Z,344
2019-05-22T07:23:33.634Z,336
2019-05-22T07:24:33.192Z,324
2019-05-22T07:25:33.134Z,300
2019-05-22T07:26:33.121Z,272
2019-05-22T07:27:33.090Z,272
2019-05-22T07:28:33.570Z,272
2019-05-22T07:29:33.121Z,280
2019-05-22T07:30:33.106Z,272
2019-05-22T07:31:33.119Z,276
2019-05-22T07:32:36.177Z,264
2019-05-22T07:33:33.130Z,264
2019-05-22T07:34:33.154Z,272
2019-05-22T07:36:18.546Z,316
2019-05-22T07:36:33.109Z,320
2019-05-22T07:37:33.100Z,320
2019-05-22T07:38:33.282Z,336
2019-05-22T07:39:33.147Z,336
2019-05-22T07:40:33.156Z,308
2019-05-22T07:41:33.473Z,296
2019-05-22T07:42:33.175Z,304
2019-05-22T07:43:33.269Z,332
2019-05-22T07:44:33.168Z,340
2019-05-22T07:45:33.299Z,340
2019-05-22T07:46:47.548Z,344
2019-05-22T07:47:33.896Z,364
2019-05-22T07:48:33.125Z,364
2019-05-22T07:49:33.132Z,340
2019-05-22T07:50:34.160Z,316
2019-05-22T07:51:33.168Z,276
2019-05-22T07:52:33.156Z,268
2019-05-22T07:53:33.160Z,280
2019-05-22T07:54:33.256Z,272
2019-05-22T07:55:33.226Z,300
2019-05-22T07:56:33.158Z,312
2019-05-22T07:57:33.208Z,284
2019-05-22T07:58:33.175Z,260
2019-05-22T07:59:33.178Z,244
2019-05-22T08:00:33.268Z,232
2019-05-22T08:01:33.211Z,232
2019-05-22T08:02:33.304Z,264
2019-05-22T08:03:33.230Z,272
2019-05-22T08:04:33.175Z,260
2019-05-22T08:05:33.669Z,260
2019-05-22T08:06:33.147Z,280
2019-05-22T08:11:50.404Z,364
2019-05-22T08:13:01.470Z,360
2019-05-22T08:14:01.702Z,348
2019-05-22T08:15:01.489Z,308
2019-05-22T08:16:02.129Z,296
2019-05-22T08:17:01.827Z,344
2019-05-22T08:18:01.603Z,380
2019-05-22T08:19:01.399Z,396
2019-05-22T08:22:10.557Z,448
2019-05-22T08:28:47.780Z,440
2019-05-22T08:28:59.014Z,288
2019-05-22T08:30:02.262Z,256
2019-05-22T08:30:58.779Z,228
2019-05-22T08:32:00.221Z,216
2019-05-22T08:32:59.629Z,208
2019-05-22T08:33:58.918Z,208
2019-05-22T08:34:59.021Z,196
2019-05-22T08:35:59.154Z,208
2019-05-22T08:36:58.831Z,216
2019-05-22T08:37:59.174Z,228
2019-05-22T08:38:59.263Z,220
2019-05-22T08:39:58.878Z,204
2019-05-22T08:40:58.827Z,228
2019-05-22T08:41:58.934Z,252
2019-05-22T08:42:58.919Z,212
2019-05-22T08:44:23.112Z,188
2019-05-22T08:44:58.957Z,184
2019-05-22T08:45:59.023Z,184
2019-05-22T08:47:02.971Z,188
2019-05-22T08:47:58.973Z,180
2019-05-22T08:48:58.853Z,176
2019-05-22T08:49:58.836Z,172
2019-05-22T08:50:59.086Z,176
2019-05-22T08:51:59.021Z,164
2019-05-22T08:52:59.015Z,156
2019-05-22T08:53:59.005Z,156
2019-05-22T08:54:58.850Z,172
2019-05-22T08:55:58.829Z,164
2019-05-22T08:56:58.923Z,156
2019-05-22T08:57:58.968Z,168
2019-05-22T08:58:58.900Z,176
2019-05-22T08:59:58.833Z,188
2019-05-22T09:00:58.888Z,184
2019-05-22T09:01:59.344Z,188
2019-05-22T09:06:28.289Z,208
2019-05-22T09:07:28.668Z,192
2019-05-22T09:08:28.277Z,196
2019-05-22T09:09:28.449Z,212
2019-05-22T09:10:31.372Z,208
2019-05-22T09:11:28.358Z,224
2019-05-22T09:12:28.350Z,208
2019-05-22T09:13:28.352Z,196
2019-05-22T09:14:28.334Z,188
2019-05-22T09:15:28.305Z,180
2019-05-22T09:16:28.333Z,188
2019-05-22T09:17:29.457Z,196
2019-05-22T09:18:28.328Z,196
2019-05-22T09:21:36.025Z,224
2019-05-22T09:21:49.274Z,228
2019-05-22T09:22:49.556Z,228
2019-05-22T09:23:49.066Z,216
2019-05-22T09:24:49.134Z,220
2019-05-22T09:26:54.103Z,216
2019-05-22T09:27:08.200Z,212
2019-05-22T09:28:05.226Z,204
2019-05-22T09:29:05.139Z,204
2019-05-22T09:30:05.221Z,204
2019-05-22T09:31:05.673Z,188
2019-05-22T09:32:05.742Z,172
2019-05-22T09:33:05.183Z,176
2019-05-22T09:34:05.327Z,192
2019-05-22T09:35:05.214Z,212
2019-05-22T09:36:05.308Z,216
2019-05-22T09:37:05.127Z,196
2019-05-22T09:38:05.169Z,188
2019-05-22T09:39:05.201Z,192
2019-05-22T09:40:05.129Z,188
2019-05-22T09:41:05.189Z,188
2019-05-22T09:42:06.631Z,208
2019-05-22T09:43:05.229Z,232
2019-05-22T09:44:05.194Z,216
2019-05-22T09:45:05.237Z,216
2019-05-22T09:46:05.166Z,240
2019-05-22T09:47:08.958Z,244
2019-05-22T09:48:05.151Z,248
2019-05-22T09:49:05.136Z,268
2019-05-22T09:50:05.433Z,296
2019-05-22T09:51:05.147Z,312
2019-05-22T09:52:05.256Z,308
2019-05-22T09:53:06.131Z,276
2019-05-22T09:54:05.149Z,256
2019-05-22T09:55:05.358Z,292
2019-05-22T09:56:05.590Z,268
2019-05-22T09:57:05.110Z,264
2019-05-22T09:58:05.418Z,268
2019-05-22T09:59:05.221Z,288
2019-05-22T10:00:05.246Z,300
2019-05-22T10:01:05.159Z,308
2019-05-22T10:02:05.247Z,300
2019-05-22T10:03:05.255Z,296
2019-05-22T10:04:05.236Z,308
2019-05-22T10:05:05.219Z,384
2019-05-22T10:06:05.729Z,476
2019-05-22T10:07:05.233Z,552
2019-05-22T10:08:09.499Z,640
2019-05-22T10:09:05.143Z,728
2019-05-22T10:10:05.210Z,784
2019-05-22T10:11:05.241Z,680
2019-05-22T10:12:05.260Z,564
2019-05-22T10:13:05.361Z,480
2019-05-22T10:14:05.563Z,436
2019-05-22T10:15:07.043Z,424
2019-05-22T10:16:05.258Z,412
2019-05-22T10:17:06.501Z,400
2019-05-22T10:18:09.130Z,396
2019-05-22T10:19:05.229Z,380
2019-05-22T10:20:05.234Z,396
2019-05-22T10:21:05.249Z,392
2019-05-22T10:22:07.192Z,368
2019-05-22T10:23:21.832Z,380
2019-05-22T10:24:05.214Z,384
2019-05-22T10:25:22.813Z,316
2019-05-22T10:26:05.230Z,320
2019-05-22T10:27:05.259Z,384
2019-05-22T10:28:07.317Z,436
2019-05-22T10:29:05.202Z,516
2019-05-22T10:30:05.277Z,608
2019-05-22T10:31:08.321Z,648
2019-05-22T10:32:06.042Z,648
2019-05-22T10:33:08.061Z,628
2019-05-22T10:34:05.225Z,608
2019-05-22T10:35:05.723Z,596
2019-05-22T10:36:06.748Z,588
2019-05-22T10:37:05.440Z,552
2019-05-22T10:38:05.609Z,564
2019-05-22T10:39:05.816Z,556
2019-05-22T10:40:05.300Z,540
2019-05-22T10:41:07.372Z,540
2019-05-22T10:42:05.272Z,592
2019-05-22T10:43:05.399Z,576
2019-05-22T10:44:05.224Z,536
2019-05-22T10:45:05.311Z,484
2019-05-22T10:47:21.210Z,340
2019-05-22T10:48:07.824Z,332
2019-05-22T10:49:07.786Z,336
2019-05-22T10:50:08.148Z,328
2019-05-22T10:51:07.917Z,308
2019-05-22T10:52:07.930Z,288
2019-05-22T10:53:07.751Z,276
2019-05-22T10:54:07.818Z,284
2019-05-22T10:55:07.888Z,284
2019-05-22T10:56:08.112Z,272
2019-05-22T10:57:07.755Z,248
2019-05-22T10:58:07.810Z,228
2019-05-22T10:59:09.558Z,216
2019-05-22T11:00:07.822Z,216
2019-05-22T11:01:07.962Z,220
2019-05-22T11:02:08.176Z,224
2019-05-22T11:03:07.918Z,224
2019-05-22T11:04:07.942Z,232
2019-05-22T11:05:07.949Z,232
2019-05-22T11:06:15.287Z,228
2019-05-22T11:07:07.767Z,236
2019-05-22T11:08:07.810Z,272
2019-05-22T11:09:07.814Z,384
2019-05-22T11:10:08.465Z,572
2019-05-22T11:11:07.845Z,648
2019-05-22T11:12:07.833Z,728
2019-05-22T11:13:08.081Z,816
2019-05-22T11:14:12.594Z,948
2019-05-22T11:15:07.855Z,1088
2019-05-22T11:16:07.921Z,1000
2019-05-22T11:17:18.502Z,940
2019-05-22T11:18:07.777Z,872
2019-05-22T11:19:07.931Z,856
2019-05-22T11:20:08.322Z,868
2019-05-22T11:21:07.811Z,852
2019-05-22T11:22:07.818Z,840
2019-05-22T11:23:07.929Z,836
2019-05-22T11:24:08.223Z,804
2019-05-22T11:25:07.980Z,788
2019-05-22T11:26:08.935Z,748
2019-05-22T11:27:07.815Z,820
2019-05-22T11:28:07.927Z,904
2019-05-22T11:29:07.867Z,1028
2019-05-22T11:30:29.927Z,1000
2019-05-22T11:31:22.647Z,892
2019-05-22T11:32:07.781Z,924
2019-05-22T11:33:07.808Z,1276
2019-05-22T11:34:07.857Z,1508
2019-05-22T11:35:08.556Z,1568
2019-05-22T11:36:07.871Z,1556
2019-05-22T11:37:07.852Z,1424
2019-05-22T11:38:07.782Z,1664
2019-05-22T11:39:08.076Z,1376
2019-05-22T11:40:07.985Z,1168
2019-05-22T11:41:07.986Z,1404
2019-05-22T11:42:07.894Z,1544
2019-05-22T11:43:08.022Z,1440
2019-05-22T11:44:08.336Z,1300
2019-05-22T11:45:07.988Z,948
2019-05-22T11:46:07.937Z,800
2019-05-22T11:47:18.934Z,760
2019-05-22T11:48:08.136Z,744
2019-05-22T11:49:07.870Z,704
2019-05-22T11:50:07.904Z,712
2019-05-22T11:51:08.882Z,828
2019-05-22T11:52:07.888Z,648
2019-05-22T11:53:08.041Z,616
2019-05-22T11:54:17.351Z,564
2019-05-22T11:55:08.007Z,496
2019-05-22T11:56:07.835Z,416
2019-05-22T11:57:07.863Z,356
2019-05-22T11:58:08.380Z,292
2019-05-22T11:59:08.531Z,256
2019-05-22T12:00:11.812Z,236
2019-05-22T12:01:07.933Z,220
2019-05-22T12:02:09.773Z,192
2019-05-22T12:03:07.928Z,164
2019-05-22T12:04:07.892Z,152
2019-05-22T12:05:07.874Z,148
2019-05-22T12:06:07.885Z,140
2019-05-22T12:07:08.011Z,128
2019-05-22T12:08:07.921Z,116
2019-05-22T12:09:07.936Z,100
2019-05-22T12:10:08.071Z,88
2019-05-22T12:11:08.199Z,84
2019-05-22T12:12:07.889Z,76
2019-05-22T12:13:08.012Z,68
2019-05-22T12:14:08.437Z,72
2019-05-22T12:15:07.955Z,72
2019-05-22T12:16:08.191Z,76
2019-05-22T12:17:16.577Z,80
2019-05-22T12:18:09.850Z,84
2019-05-22T12:19:07.928Z,80
2019-05-22T12:20:08.442Z,76
2019-05-22T12:21:07.878Z,80
2019-05-22T12:22:07.909Z,84
2019-05-22T12:23:08.034Z,84
2019-05-22T12:24:07.860Z,80
2019-05-22T12:25:07.935Z,80
2019-05-22T12:26:08.314Z,80
2019-05-22T12:27:08.225Z,84
2019-05-22T12:28:08.050Z,84
2019-05-22T12:29:07.996Z,80
2019-05-22T12:30:07.876Z,84
2019-05-22T12:31:08.193Z,88
2019-05-22T12:32:08.612Z,84
2019-05-22T12:33:15.834Z,88
2019-05-22T12:34:07.905Z,88
2019-05-22T12:35:08.118Z,92
2019-05-22T12:36:07.898Z,92
2019-05-22T12:37:07.901Z,96
2019-05-22T12:38:09.195Z,100
2019-05-22T12:39:08.016Z,112
2019-05-22T12:40:07.991Z,120
2019-05-22T12:41:07.962Z,128
2019-05-22T12:42:07.914Z,144
2019-05-22T12:43:07.944Z,152
2019-05-22T12:44:08.406Z,168
2019-05-22T12:45:08.819Z,184
2019-05-22T12:46:08.045Z,200
2019-05-22T12:47:19.016Z,216
2019-05-22T12:48:07.931Z,228
2019-05-22T12:49:11.514Z,240
2019-05-22T12:50:08.562Z,256
2019-05-22T12:51:08.013Z,268
2019-05-22T12:52:07.969Z,276
2019-05-22T12:53:08.169Z,284
2019-05-22T12:54:08.214Z,288
2019-05-22T12:55:08.012Z,284
2019-05-22T12:56:07.996Z,288
2019-05-22T12:57:08.098Z,292
2019-05-22T12:58:07.989Z,312
2019-05-22T12:59:07.985Z,328
2019-05-22T13:00:10.608Z,352
2019-05-22T13:01:08.243Z,376
2019-05-22T13:02:08.427Z,388
2019-05-22T13:03:08.049Z,392
2019-05-22T13:04:08.110Z,384
2019-05-22T13:05:08.124Z,368
2019-05-22T13:06:08.087Z,348
2019-05-22T13:07:07.957Z,328
2019-05-22T13:08:08.731Z,308
2019-05-22T13:09:07.980Z,300
2019-05-22T13:10:08.155Z,288
2019-05-22T13:11:10.598Z,288
2019-05-22T13:12:07.965Z,284
2019-05-22T13:13:07.967Z,288
2019-05-22T13:14:08.030Z,292
2019-05-22T13:15:17.908Z,312
2019-05-22T13:16:09.550Z,320
2019-05-22T13:17:17.018Z,344
2019-05-22T13:18:11.504Z,372
2019-05-22T13:19:08.032Z,408
2019-05-22T13:20:07.993Z,468
2019-05-22T13:21:08.030Z,604
2019-05-22T13:22:07.947Z,704
2019-05-22T13:23:07.986Z,1200
2019-05-22T13:24:08.052Z,1592
2019-05-22T13:25:08.087Z,1620
2019-05-22T13:26:08.357Z,1588
2019-05-22T13:27:08.113Z,908
2019-05-22T13:28:08.136Z,516
2019-05-22T13:29:08.082Z,404
2019-05-22T13:30:08.296Z,348
2019-05-22T13:31:08.108Z,308
2019-05-22T13:32:08.008Z,280
2019-05-22T13:33:08.042Z,260
2019-05-22T13:34:08.214Z,248
2019-05-22T13:35:08.174Z,228
2019-05-22T13:36:08.396Z,212
2019-05-22T13:37:08.002Z,200
2019-05-22T13:38:08.068Z,200
2019-05-22T13:39:08.061Z,204
2019-05-22T13:40:24.740Z,212
2019-05-22T13:41:08.160Z,240
2019-05-22T13:42:08.613Z,284
2019-05-22T13:43:08.233Z,340
2019-05-22T13:44:08.008Z,412
2019-05-22T13:45:08.040Z,504
2019-05-22T13:46:08.012Z,552
2019-05-22T13:47:08.067Z,592
2019-05-22T13:48:08.098Z,620
2019-05-22T13:49:08.098Z,904
2019-05-22T13:50:09.967Z,776
2019-05-22T13:51:08.271Z,564
2019-05-22T13:52:08.215Z,504
2019-05-22T13:53:08.693Z,476
2019-05-22T13:54:08.064Z,456
2019-05-22T13:55:08.195Z,440
2019-05-22T13:56:08.663Z,424
2019-05-22T13:57:08.056Z,392
2019-05-22T13:58:08.094Z,356
2019-05-22T13:59:08.067Z,312
2019-05-22T14:00:12.021Z,268
2019-05-22T14:01:08.176Z,236
2019-05-22T14:02:08.095Z,216
2019-05-22T14:03:08.109Z,208
2019-05-22T14:04:08.175Z,212
2019-05-22T14:05:08.270Z,216
2019-05-22T14:06:08.124Z,220
2019-05-22T14:07:08.173Z,220
2019-05-22T14:08:08.465Z,224
2019-05-22T14:09:08.164Z,220
2019-05-22T14:10:09.729Z,220
2019-05-22T14:11:08.096Z,208
2019-05-22T14:12:08.165Z,200
2019-05-22T14:13:08.174Z,188
2019-05-22T14:14:21.310Z,180
2019-05-22T14:15:47.746Z,176
2019-05-22T14:16:08.090Z,172
2019-05-22T14:17:09.328Z,172
2019-05-22T14:18:08.392Z,168
2019-05-22T14:19:08.278Z,164
2019-05-22T14:20:08.873Z,164
2019-05-22T14:21:08.233Z,164
2019-05-22T14:22:08.357Z,160
2019-05-22T14:23:08.433Z,152
2019-05-22T14:24:08.213Z,148
2019-05-22T14:25:08.233Z,144
2019-05-22T14:26:08.623Z,148
2019-05-22T14:27:08.188Z,152
2019-05-22T14:28:08.358Z,156
2019-05-22T14:29:08.214Z,164
2019-05-22T14:30:08.415Z,172
2019-05-22T14:31:08.357Z,184
2019-05-22T14:32:08.709Z,188
2019-05-22T14:33:12.814Z,196
2019-05-22T14:34:08.184Z,200
2019-05-22T14:35:08.487Z,196